Archival Weather

Norman Y Mineta San Jose Intl

San Jose, California (KSJC)

Report from: Wednesday, February 28, 2024 4:53 AM PST
Current time: Monday, June 24, 2024 4:04 AM PDT

Current weather – Weather history – Daily summaries
Weather forecast

Temperature7.2°C (45.0°F)
Dew point2.2°C (36.0°F)
Winds Calm
Visibility10 mi. (16.1 km)
Clouds Sky clear
Altimeter30.07 in.Hg (1018 mB)
Relative humidity71 %
Density altitude-1,003 ft. (-306 m)
Sea-level pressure101.8 kPa (1018 mB, 30.07 in.Hg)
Remarks Fully automated report
Automated weather observing station with precipitation discriminator
Flight conditions Visual Meteorological Conditions
Raw dataKSJC 281253Z AUTO 00000KT 10SM CLR 07/02 A3007 RMK AO2 SLP183 T00720022
An error has occurred. This application may no longer respond until reloaded. Reload 🗙